KPHX/PHX METAR and TAF weather

Enter ICAO airport designator
Station Type Date Time Source
KPHX METAR 2020/04/10 18:51 UTC NOAA

KPHX 101851Z 00000KT 10SM FEW085 FEW120 SCT220 22/M01 A2995 RMK AO2 SLP132 T02171006


Station Type Date Time Source
KPHX Decoded METAR 2020/04/10 18:51 UTC NOAA

Phoenix, Phoenix Sky Harbor International Airport, AZ, United States (KPHX) 33-26-03N 112-03-04W 336M
Apr 10, 2020 - 02:51 PM EDT / 2020.04.10 1851 UTC
Wind: Calm:0
Visibility: 10 mile(s):0
Sky conditions: partly cloudy
Temperature: 71.1 F (21.7 C)
Dew Point: 30.9 F (-0.6 C)
Relative Humidity: 22%
Pressure (altimeter): 29.95 in. Hg (1014 hPa)
ob: KPHX 101851Z 00000KT 10SM FEW085 FEW120 SCT220 22/M01 A2995 RMK AO2 SLP132 T02171006
cycle: 19

Station Type Date Time Source
KPHX TAF 2020/04/10 18:22 UTC NOAA

TAF KPHX 101720Z 1018/1124 22004KT P6SM FEW080
TEMPO 1018/1020 VRB04KT
FM102000 27008KT P6SM SCT100 BKN200
FM111200 VRB04KT P6SM VCSH SCT060 BKN080 BKN200 PROB30 1112/1115 4SM -SHRA OVC050
FM111500 14005KT P6SM OVC050
FM111800 20008KT P6SM VCSH BKN050 BKN080 BKN200 PROB30 1119/1123 4SM -SHRA OVC050

Example: see airport list